Time;durP1;ratioP1;P1;durP2;ratioP2;P2;SDS_P1;SDS_P2;PMS_P1;PMS_P2;Temp;Humidity;BMP_temperature;BMP_pressure;BME280_temperature;BME280_humidity;BME280_pressure;Samples;Min_cycle;Max_cycle;Signal;HPM_P1;HPM_P2
2023/04/02 00:01:03;;;;;;;44.22;18.13;;;;;;;7.21;100.00;98837.44;5077504;28;20074;-39
2023/04/02 00:03:44;;;;;;;40.88;17.83;;;;;;;7.16;100.00;98830.75;5083176;28;20037;-39
2023/04/02 00:06:33;;;;;;;48.33;19.35;;;;;;;7.13;100.00;98828.25;5074652;28;20583;-39
2023/04/02 00:09:14;;;;;;;58.38;21.77;;;;;;;7.08;100.00;98828.41;5076813;28;20504;-39
2023/04/02 00:11:47;;;;;;;41.20;18.75;;;;;;;6.92;100.00;98809.16;5068859;28;20040;-38
2023/04/02 00:14:29;;;;;;;37.47;14.95;;;;;;;7.07;100.00;98849.13;5068746;28;20044;-40
2023/04/02 00:16:57;;;;;;;38.33;14.82;;;;;;;7.05;100.00;98838.00;5069916;28;20044;-39
2023/04/02 00:19:36;;;;;;;44.67;18.30;;;;;;;7.11;100.00;98840.41;5073118;28;20075;-39
2023/04/02 00:22:05;;;;;;;53.92;20.98;;;;;;;7.16;100.00;98844.50;5061603;28;20055;-39
2023/04/02 00:24:32;;;;;;;44.73;18.10;;;;;;;7.20;100.00;98853.84;5077230;28;20408;-38
2023/04/02 00:26:58;;;;;;;52.25;20.48;;;;;;;7.29;100.00;98849.25;5066204;28;20333;-38
2023/04/02 00:29:24;;;;;;;41.00;17.75;;;;;;;7.36;100.00;98842.97;5074598;28;20051;-40
2023/04/02 00:31:51;;;;;;;42.15;16.27;;;;;;;7.33;100.00;98849.09;5081186;28;20040;-40
2023/04/02 00:34:26;;;;;;;44.53;19.23;;;;;;;7.32;100.00;98855.19;5077421;28;20078;-38
2023/04/02 00:36:53;;;;;;;38.03;16.52;;;;;;;7.16;100.00;98839.34;5078329;28;20047;-38
2023/04/02 00:39:30;;;;;;;50.70;18.85;;;;;;;7.29;100.00;98852.69;5087867;28;20047;-39
2023/04/02 00:42:06;;;;;;;46.13;17.15;;;;;;;7.32;100.00;98855.19;5051528;28;20056;-39
2023/04/02 00:44:41;;;;;;;38.25;15.27;;;;;;;7.32;100.00;98856.91;5079022;28;20040;-38
2023/04/02 00:47:11;;;;;;;44.03;16.15;;;;;;;7.31;100.00;98855.22;5069098;28;20060;-39
2023/04/02 00:49:39;;;;;;;29.75;13.15;;;;;;;7.30;100.00;98856.13;5068112;28;20740;-39
2023/04/02 00:52:11;;;;;;;43.40;16.88;;;;;;;7.31;100.00;98866.41;5068160;28;20052;-39
2023/04/02 00:55:26;;;;;;;38.10;16.48;;;;;;;7.33;100.00;98867.19;5073174;28;20067;-38
2023/04/02 00:57:53;;;;;;;40.67;16.40;;;;;;;7.31;100.00;98863.81;5067135;28;20068;-39
2023/04/02 01:00:36;;;;;;;47.08;20.05;;;;;;;7.36;100.00;98866.25;5069687;28;20067;-39
2023/04/02 01:03:18;;;;;;;36.63;15.40;;;;;;;7.36;100.00;98871.41;5068870;28;20071;-39
2023/04/02 01:06:11;;;;;;;38.50;15.65;;;;;;;7.37;100.00;98873.97;5077797;28;20658;-39
2023/04/02 01:08:50;;;;;;;46.95;16.13;;;;;;;7.37;100.00;98865.34;5050506;28;20052;-38
2023/04/02 01:11:45;;;;;;;38.53;14.48;;;;;;;7.40;100.00;98865.25;5051418;28;20047;-38
2023/04/02 01:14:37;;;;;;;29.85;13.10;;;;;;;7.42;100.00;98861.72;5067276;28;20052;-39
2023/04/02 01:17:14;;;;;;;39.85;15.95;;;;;;;7.43;100.00;98859.97;5084403;28;20068;-37
2023/04/02 01:20:06;;;;;;;37.63;15.65;;;;;;;7.48;100.00;98866.69;5069216;28;20127;-38
2023/04/02 01:22:35;;;;;;;38.80;16.30;;;;;;;7.53;100.00;98861.34;5067253;28;20040;-39
2023/04/02 01:25:03;;;;;;;30.87;12.97;;;;;;;7.54;100.00;98868.19;5050401;28;20094;-39
2023/04/02 01:27:38;;;;;;;42.87;15.97;;;;;;;7.54;100.00;98870.75;5079550;28;20044;-39
2023/04/02 01:30:06;;;;;;;38.63;15.10;;;;;;;7.51;100.00;98870.88;5065788;28;20051;-39
2023/04/02 01:32:33;;;;;;;35.83;15.38;;;;;;;7.39;100.00;98848.03;5050901;28;20036;-40
2023/04/02 01:35:00;;;;;;;30.98;13.43;;;;;;;7.57;100.00;98868.09;5059146;28;20119;-39
2023/04/02 01:37:49;;;;;;;31.40;13.30;;;;;;;7.60;100.00;98870.56;5051318;28;20036;-39
2023/04/02 01:40:18;;;;;;;;;;;;;;;7.62;100.00;98859.28;5065663;28;20516;-38
2023/04/02 01:42:53;;;;;;;25.83;11.77;;;;;;;7.62;100.00;98864.44;5067160;28;19920;-39
2023/04/02 01:45:22;;;;;;;32.15;13.52;;;;;;;7.52;100.00;98844.13;5066661;28;20048;-39
2023/04/02 01:47:48;;;;;;;35.10;13.27;;;;;;;7.48;100.00;98833.06;5067143;28;20529;-38
2023/04/02 01:50:18;;;;;;;32.88;15.13;;;;;;;7.68;100.00;98852.19;5074918;28;20040;-39
2023/04/02 01:52:47;;;;;;;34.95;14.60;;;;;;;7.71;100.00;98858.09;5083673;28;20044;-39
2023/04/02 01:55:20;;;;;;;36.45;15.05;;;;;;;7.75;100.00;98845.88;5062500;28;20063;-39
2023/04/02 01:57:48;;;;;;;32.60;13.38;;;;;;;7.76;100.00;98853.59;5086998;28;20649;-38
2023/04/02 02:00:16;;;;;;;38.47;15.45;;;;;;;7.49;100.00;98813.19;5069721;28;20530;-39
2023/04/02 02:02:48;;;;;;;36.55;14.02;;;;;;;7.77;100.00;98860.47;5070532;28;20113;-39
2023/04/02 02:05:16;;;;;;;30.45;12.57;;;;;;;7.80;100.00;98854.34;5084572;28;20047;-39
2023/04/02 02:07:45;;;;;;;34.15;13.75;;;;;;;7.66;100.00;98822.03;5086053;28;20043;-39
2023/04/02 02:10:17;;;;;;;31.90;13.88;;;;;;;7.85;100.00;98853.25;5066008;28;20051;-39
2023/04/02 02:12:43;;;;;;;30.75;14.88;;;;;;;7.75;100.00;98833.78;5066958;28;20052;-39
2023/04/02 02:15:18;;;;;;;29.08;13.00;;;;;;;7.90;100.00;98861.69;5050637;28;20066;-38
2023/04/02 02:17:44;;;;;;;39.00;16.90;;;;;;;7.92;100.00;98866.81;5070065;28;20384;-39
2023/04/02 02:20:11;;;;;;;30.48;12.70;;;;;;;7.93;100.00;98871.94;5084348;28;20576;-38
2023/04/02 02:22:56;;;;;;;31.20;13.68;;;;;;;7.95;100.00;98866.72;5066631;28;20051;-39
2023/04/02 02:25:31;;;;;;;25.83;11.07;;;;;;;7.95;100.00;98859.81;5049522;28;20052;-37
2023/04/02 02:28:06;;;;;;;30.88;15.23;;;;;;;7.98;99.83;98867.44;5066695;28;20079;-39
2023/04/02 02:31:18;;;;;;;26.52;13.25;;;;;;;8.02;99.26;98858.66;5070328;28;20738;-39
2023/04/02 02:33:51;;;;;;;30.02;12.48;;;;;;;7.98;98.77;98866.59;5010033;28;20113;-38
2023/04/02 02:36:23;;;;;;;27.92;12.02;;;;;;;7.87;98.36;98841.09;5009538;28;20075;-40
2023/04/02 02:38:54;;;;;;;;;;;;;;;8.02;97.79;98866.41;5027085;28;20044;-40
2023/04/02 02:41:45;;;;;;;30.92;12.43;;;;;;;7.98;97.19;98871.78;5077281;28;20423;-39
2023/04/02 02:44:38;;;;;;;26.67;11.07;;;;;;;8.00;97.04;98875.16;5049813;28;20106;-38
2023/04/02 02:47:27;;;;;;;23.88;11.30;;;;;;;8.01;96.66;98872.50;5091536;28;20075;-38
2023/04/02 02:49:57;;;;;;;29.08;12.05;;;;;;;7.87;96.29;98850.63;5049199;28;20496;-39
2023/04/02 02:52:37;;;;;;;31.92;14.52;;;;;;;8.03;95.77;98875.88;5072656;28;20032;-39
2023/04/02 02:55:13;;;;;;;24.45;10.90;;;;;;;7.88;95.27;98845.38;5086944;28;20044;-38
2023/04/02 02:58:07;;;;;;;27.50;12.10;;;;;;;8.00;95.12;98868.25;5069944;28;20492;-39
2023/04/02 03:00:42;;;;;;;28.80;13.05;;;;;;;8.01;94.64;98874.22;5054747;28;20148;-39
2023/04/02 03:03:12;;;;;;;25.63;11.35;;;;;;;8.01;94.35;98879.41;5069849;28;20169;-38
2023/04/02 03:05:40;;;;;;;26.33;11.85;;;;;;;8.03;94.06;98875.88;5054522;28;20105;-40
2023/04/02 03:08:18;;;;;;;28.30;13.32;;;;;;;7.90;93.99;98856.50;5069619;28;20048;-37
2023/04/02 03:10:51;;;;;;;28.15;12.43;;;;;;;8.09;93.95;98880.84;5071536;28;20068;-38
2023/04/02 03:13:23;;;;;;;25.27;11.35;;;;;;;8.13;93.47;98880.69;5055332;28;20044;-39
2023/04/02 03:16:08;;;;;;;24.33;11.40;;;;;;;8.11;93.37;98890.28;5071861;28;20126;-38
2023/04/02 03:18:46;;;;;;;25.67;10.88;;;;;;;8.15;93.23;98882.34;5088682;28;20072;-38
2023/04/02 03:21:37;;;;;;;26.92;12.02;;;;;;;8.15;92.69;98887.53;5053840;28;20070;-38
2023/04/02 03:24:49;;;;;;;26.17;11.00;;;;;;;8.14;92.28;98892.75;5069538;28;20040;-40
2023/04/02 03:27:23;;;;;;;27.58;11.60;;;;;;;8.13;91.94;98891.06;5045893;28;20080;-38
2023/04/02 03:30:26;;;;;;;27.10;12.50;;;;;;;8.16;91.57;98891.81;5018674;28;20047;-38
2023/04/02 03:32:57;;;;;;;31.38;11.95;;;;;;;8.19;91.29;98904.63;5046996;28;21437;-39
2023/04/02 03:35:29;;;;;;;23.75;10.45;;;;;;;8.20;91.54;98901.16;5015140;28;20120;-39
2023/04/02 03:38:17;;;;;;;24.65;11.48;;;;;;;8.24;91.03;98894.09;5052154;28;20045;-39
2023/04/02 03:41:00;;;;;;;27.20;11.98;;;;;;;8.28;90.72;98903.44;5001185;28;20052;-39
2023/04/02 03:43:36;;;;;;;23.90;11.27;;;;;;;8.26;90.03;98897.50;5033279;28;20114;-39
2023/04/02 03:46:24;;;;;;;26.15;11.25;;;;;;;8.28;89.75;98911.19;5013830;28;20813;-38
2023/04/02 03:49:16;;;;;;;23.27;11.13;;;;;;;8.30;89.47;98905.09;5031374;28;20163;-38
2023/04/02 03:52:18;;;;;;;26.02;11.45;;;;;;;8.32;89.21;98905.06;5031136;28;20555;-39
2023/04/02 03:54:44;;;;;;;25.20;10.77;;;;;;;8.32;89.10;98900.69;5051461;28;20036;-38
2023/04/02 03:57:21;;;;;;;27.02;12.00;;;;;;;8.34;88.76;98906.69;5028913;28;20052;-40
2023/04/02 04:00:15;;;;;;;25.38;11.10;;;;;;;8.34;88.56;98909.25;5068950;28;20047;-39
2023/04/02 04:02:52;;;;;;;22.30;11.23;;;;;;;8.32;88.04;98910.25;5085342;28;20054;-39
2023/04/02 04:05:24;;;;;;;24.60;11.63;;;;;;;8.31;87.91;98909.38;5082065;28;20473;-39
2023/04/02 04:07:59;;;;;;;22.98;12.48;;;;;;;8.28;87.64;98903.44;5069725;28;20526;-39
2023/04/02 04:10:25;;;;;;;22.88;11.35;;;;;;;8.20;87.58;98882.19;5085654;28;20059;-39
2023/04/02 04:12:54;;;;;;;26.02;11.82;;;;;;;8.36;87.49;98901.44;5092157;27;20053;-39
2023/04/02 04:15:57;;;;;;;21.92;11.05;;;;;;;8.33;87.18;98892.03;5086568;28;20036;-40
2023/04/02 04:19:02;;;;;;;23.90;10.50;;;;;;;8.37;86.84;98897.97;5038713;28;20146;-39
2023/04/02 04:21:38;;;;;;;29.55;12.93;;;;;;;8.35;86.63;98904.94;5055091;28;20052;-39
2023/04/02 04:24:22;;;;;;;24.20;10.93;;;;;;;8.37;86.53;98908.31;5085104;28;20506;-40
2023/04/02 04:26:54;;;;;;;21.42;10.20;;;;;;;8.34;86.07;98896.31;5068595;28;20075;-39
2023/04/02 04:29:49;;;;;;;28.40;11.40;;;;;;;8.37;86.01;98916.09;5086004;28;20117;-39
2023/04/02 04:32:32;;;;;;;26.60;10.30;;;;;;;8.40;85.61;98921.13;5051518;28;20052;-39
2023/04/02 04:35:16;;;;;;;21.27;10.45;;;;;;;8.39;85.29;98912.53;5053189;28;20470;-39
2023/04/02 04:37:48;;;;;;;16.52;9.45;;;;;;;8.44;84.89;98910.59;5068850;28;20093;-38
2023/04/02 04:40:20;;;;;;;21.80;10.60;;;;;;;8.53;84.40;98919.75;5068851;28;20046;-39
2023/04/02 04:42:47;;;;;;;23.67;10.73;;;;;;;8.60;84.18;98920.38;5068366;28;20053;-38
2023/04/02 04:45:23;;;;;;;14.75;7.95;;;;;;;8.56;83.68;98926.59;5034549;28;20419;-39
2023/04/02 04:48:04;;;;;;;21.20;9.48;;;;;;;8.41;82.87;98915.06;5084945;28;20538;-39
2023/04/02 04:50:40;;;;;;;19.92;9.35;;;;;;;8.55;82.69;98938.69;5064462;28;20055;-40
2023/04/02 04:53:12;;;;;;;20.60;9.23;;;;;;;8.57;82.10;98936.06;5064788;28;20161;-39
2023/04/02 04:55:42;;;;;;;22.77;10.50;;;;;;;8.62;81.76;98936.72;5067949;28;20036;-38
2023/04/02 04:58:31;;;;;;;18.73;8.57;;;;;;;8.68;81.24;98937.34;5072836;28;20256;-40
2023/04/02 05:01:04;;;;;;;21.67;9.88;;;;;;;8.68;81.05;98944.25;5083607;28;20040;-43
2023/04/02 05:03:45;;;;;;;16.58;8.57;;;;;;;8.62;81.08;98937.56;5061370;28;20424;-39
2023/04/02 05:06:34;;;;;;;21.08;9.43;;;;;;;8.61;80.44;98943.66;5061031;28;20555;-40
2023/04/02 05:09:21;;;;;;;17.95;9.05;;;;;;;8.58;79.96;98942.94;5072622;28;20507;-38
2023/04/02 05:12:18;;;;;;;18.52;8.52;;;;;;;8.53;80.01;98929.31;5069839;28;20149;-39
2023/04/02 05:14:59;;;;;;;16.95;8.65;;;;;;;8.58;79.71;98925.63;5067765;28;20036;-38
2023/04/02 05:17:35;;;;;;;17.55;8.70;;;;;;;8.48;79.65;98912.16;5084787;28;20044;-39
2023/04/02 05:20:32;;;;;;;17.58;8.48;;;;;;;8.67;79.54;98939.97;5084382;28;20515;-39
2023/04/02 05:23:14;;;;;;;14.13;6.57;;;;;;;8.61;79.32;98948.81;5051038;28;20071;-39
2023/04/02 05:26:12;;;;;;;17.27;9.05;;;;;;;8.60;79.27;98938.50;5053056;28;20091;-39
2023/04/02 05:28:50;;;;;;;18.60;8.20;;;;;;;8.56;79.55;98949.91;5070582;28;20159;-38
2023/04/02 05:31:24;;;;;;;15.75;8.00;;;;;;;8.52;79.29;98950.94;5068521;28;20044;-39
2023/04/02 05:33:53;;;;;;;18.60;9.38;;;;;;;8.53;79.27;98948.25;5034906;28;20131;-39
2023/04/02 05:36:25;;;;;;;17.83;8.85;;;;;;;8.42;79.48;98927.97;5066547;28;20048;-39
2023/04/02 05:38:56;;;;;;;18.77;8.02;;;;;;;8.59;79.05;98949.78;5049238;28;20396;-38
2023/04/02 05:41:35;;;;;;;16.33;8.10;;;;;;;8.31;79.02;98914.56;5068365;28;20091;-39
2023/04/02 05:44:26;;;;;;;15.45;7.47;;;;;;;8.31;78.35;98909.38;5040801;28;20095;-39
2023/04/02 05:46:59;;;;;;;16.13;7.55;;;;;;;8.56;78.24;98968.03;5091629;28;20134;-40
2023/04/02 05:49:51;;;;;;;16.45;7.75;;;;;;;8.51;78.34;98955.25;5071492;28;20085;-39
2023/04/02 05:52:27;;;;;;;18.70;8.27;;;;;;;8.42;78.23;98938.31;5073493;28;20175;-39
2023/04/02 05:55:12;;;;;;;15.00;7.00;;;;;;;8.59;77.60;98963.56;5066652;28;20040;-38
2023/04/02 05:57:48;;;;;;;14.98;7.97;;;;;;;8.65;77.35;98963.34;5087605;28;20040;-38
2023/04/02 06:00:19;;;;;;;17.45;7.93;;;;;;;8.58;77.26;98951.53;5069177;28;20051;-40
2023/04/02 06:02:54;;;;;;;16.67;7.95;;;;;;;8.52;76.71;98946.59;5067745;28;20044;-39
2023/04/02 06:05:23;;;;;;;15.07;7.10;;;;;;;8.74;76.87;98965.56;5069123;28;20380;-39
2023/04/02 06:08:00;;;;;;;16.70;7.78;;;;;;;8.77;76.57;98962.03;5084868;28;20054;-39
2023/04/02 06:10:28;;;;;;;15.65;8.18;;;;;;;8.69;76.01;98940.78;5086648;28;20666;-39
2023/04/02 06:13:03;;;;;;;18.77;8.93;;;;;;;8.86;76.01;98962.53;5069614;28;20043;-40
2023/04/02 06:15:34;;;;;;;17.27;9.02;;;;;;;8.94;75.93;98970.00;5070555;28;20419;-40
2023/04/02 06:18:13;;;;;;;19.02;9.05;;;;;;;8.85;75.61;98941.84;5066212;28;20118;-40
2023/04/02 06:20:40;;;;;;;17.63;8.45;;;;;;;8.99;75.68;98962.91;5050075;28;20063;-39
2023/04/02 06:23:14;;;;;;;18.10;9.07;;;;;;;8.99;75.31;98969.81;5060561;28;20116;-40
2023/04/02 06:25:47;;;;;;;16.65;8.50;;;;;;;8.96;75.10;98967.34;5071838;28;20040;-42
2023/04/02 06:28:20;;;;;;;20.98;9.15;;;;;;;8.95;75.45;98952.72;5070837;28;20135;-44
2023/04/02 06:30:54;;;;;;;18.00;8.77;;;;;;;8.96;74.78;98944.84;5082712;28;20048;-39
2023/04/02 06:33:21;;;;;;;17.98;9.93;;;;;;;9.16;74.89;98957.88;5099663;28;20051;-40
2023/04/02 06:35:49;;;;;;;16.88;7.88;;;;;;;9.17;73.90;98969.94;5071320;28;20040;-40
2023/04/02 06:38:26;;;;;;;16.90;8.82;;;;;;;9.06;74.02;98940.13;5069354;28;20070;-39
2023/04/02 06:40:55;;;;;;;17.27;8.80;;;;;;;9.25;73.79;98964.44;5037762;28;20051;-40
2023/04/02 06:43:50;;;;;;;17.05;9.02;;;;;;;9.26;73.07;98969.56;5070482;28;20056;-39
2023/04/02 06:46:34;;;;;;;19.88;9.32;;;;;;;9.25;73.47;98964.44;5089809;28;20036;-39
2023/04/02 06:49:35;;;;;;;15.45;8.40;;;;;;;9.23;73.11;98961.91;5076145;28;20040;-40
2023/04/02 06:52:09;;;;;;;21.15;9.00;;;;;;;9.30;73.07;98962.50;5068747;28;20044;-38
2023/04/02 06:54:35;;;;;;;18.10;9.25;;;;;;;9.40;73.07;98958.63;5068351;28;20051;-39
2023/04/02 06:57:06;;;;;;;19.42;9.45;;;;;;;9.50;72.80;98967.72;5091791;28;20052;-38
2023/04/02 06:59:39;;;;;;;19.35;10.13;;;;;;;9.47;72.13;98960.06;5076174;28;20032;-38
2023/04/02 07:02:29;;;;;;;20.83;9.75;;;;;;;9.54;71.80;98966.69;5053992;28;20041;-40
2023/04/02 07:05:01;;;;;;;19.40;8.88;;;;;;;9.54;71.95;98943.31;5068490;28;20043;-38
2023/04/02 07:07:29;;;;;;;21.40;9.50;;;;;;;9.69;71.42;98981.59;5086975;28;20516;-38
2023/04/02 07:09:56;;;;;;;19.55;9.30;;;;;;;9.74;71.28;98979.66;5090157;27;20102;-38
2023/04/02 07:12:24;;;;;;;18.65;8.43;;;;;;;9.86;71.02;98986.09;5054022;28;20071;-38
2023/04/02 07:14:51;;;;;;;15.02;9.05;;;;;;;10.04;69.79;98976.69;5069716;28;20048;-39
2023/04/02 07:17:19;;;;;;;16.98;9.40;;;;;;;9.82;69.78;98947.34;5070358;28;20124;-38
2023/04/02 07:19:48;;;;;;;15.50;8.38;;;;;;;9.95;69.88;98971.88;5088743;28;20089;-38
2023/04/02 07:22:17;;;;;;;16.67;8.88;;;;;;;10.13;69.42;98978.88;5073592;28;20105;-40
2023/04/02 07:24:45;;;;;;;19.70;8.93;;;;;;;10.12;68.77;98979.78;5098122;28;20045;-39
2023/04/02 07:27:12;;;;;;;13.23;7.43;;;;;;;10.05;68.18;98980.94;5088213;28;20044;-38
2023/04/02 07:29:41;;;;;;;13.25;7.53;;;;;;;9.93;68.29;98979.75;5085843;28;20052;-39
2023/04/02 07:32:09;;;;;;;14.10;8.32;;;;;;;9.97;68.37;98991.69;5070130;28;20105;-39
2023/04/02 07:34:35;;;;;;;14.55;7.88;;;;;;;9.89;68.22;98995.53;5077277;28;20050;-42
2023/04/02 07:37:04;;;;;;;15.50;7.75;;;;;;;9.86;68.52;98993.03;5092879;28;20135;-40
2023/04/02 07:39:30;;;;;;;16.07;7.73;;;;;;;9.55;68.54;98959.75;5056342;28;20055;-38
2023/04/02 07:41:57;;;;;;;15.20;8.40;;;;;;;9.68;68.01;98998.09;5068714;28;20057;-39
2023/04/02 07:44:23;;;;;;;15.65;8.52;;;;;;;9.62;68.14;98990.56;5080013;28;20036;-40
2023/04/02 07:46:50;;;;;;;14.30;7.93;;;;;;;9.63;68.22;98996.63;5082226;28;20056;-39
2023/04/02 07:49:16;;;;;;;14.80;8.43;;;;;;;9.58;68.32;98991.59;5069957;28;20070;-39
2023/04/02 07:51:42;;;;;;;13.57;8.02;;;;;;;9.48;68.52;98985.09;5078462;28;20043;-39
2023/04/02 07:54:09;;;;;;;16.35;8.20;;;;;;;9.64;68.06;99000.88;5076350;28;20089;-39
2023/04/02 07:56:35;;;;;;;18.75;8.00;;;;;;;9.59;68.36;98995.88;5089880;28;20032;-38
2023/04/02 07:59:02;;;;;;;14.10;7.80;;;;;;;9.72;68.18;99011.81;5089727;28;20036;-38
2023/04/02 08:01:34;;;;;;;14.40;7.85;;;;;;;9.70;68.04;99014.44;5073747;28;20036;-46
2023/04/02 08:04:02;;;;;;;16.00;8.15;;;;;;;9.73;67.48;99009.13;5062130;28;20036;-39
2023/04/02 08:06:28;;;;;;;14.45;7.85;;;;;;;9.59;67.67;98980.31;5071831;28;20047;-39
2023/04/02 08:08:55;;;;;;;15.13;8.10;;;;;;;9.78;67.32;99004.59;5080213;28;20577;-39
2023/04/02 08:11:21;;;;;;;14.02;7.50;;;;;;;9.77;67.50;99007.25;5077274;28;20063;-39
2023/04/02 08:13:47;;;;;;;16.48;8.57;;;;;;;9.80;67.50;99009.72;5082922;28;20412;-39
2023/04/02 08:16:13;;;;;;;14.25;8.60;;;;;;;9.88;67.43;99007.66;5070290;28;20119;-39
2023/04/02 08:18:39;;;;;;;14.13;8.45;;;;;;;9.88;67.37;98981.69;5084928;28;20104;-40
2023/04/02 08:21:07;;;;;;;13.63;8.48;;;;;;;10.08;67.01;99002.44;5079102;28;20151;-40
2023/04/02 08:23:34;;;;;;;15.45;7.85;;;;;;;10.00;67.01;98985.50;5071560;28;20503;-38
2023/04/02 08:26:00;;;;;;;13.88;7.88;;;;;;;10.16;66.29;99015.13;5077167;28;20040;-39
2023/04/02 08:28:26;;;;;;;14.63;7.68;;;;;;;10.07;66.62;99015.50;5100277;27;20861;-38
2023/04/02 08:30:52;;;;;;;17.98;8.20;;;;;;;9.95;66.75;99022.03;5078771;28;20048;-38
2023/04/02 08:33:19;;;;;;;13.85;7.18;;;;;;;9.70;66.47;98991.09;5070910;28;20040;-39
2023/04/02 08:35:46;;;;;;;15.85;8.13;;;;;;;9.88;66.40;99017.19;5069105;28;20040;-40
2023/04/02 08:38:14;;;;;;;16.35;8.02;;;;;;;10.00;66.56;99027.88;5069776;28;20048;-40
2023/04/02 08:40:42;;;;;;;17.35;8.27;;;;;;;9.92;66.55;99016.16;5051294;28;20055;-41
2023/04/02 08:43:39;;;;;;;14.60;8.45;;;;;;;9.91;66.69;99012.69;5082410;28;20078;-40
2023/04/02 08:46:13;;;;;;;15.93;7.97;;;;;;;9.93;66.72;99015.25;5082477;28;20032;-40
2023/04/02 08:48:42;;;;;;;18.17;8.30;;;;;;;10.00;66.64;99020.09;5081775;28;20087;-40
2023/04/02 08:51:21;;;;;;;16.95;8.45;;;;;;;9.92;66.39;99017.00;5088548;28;20044;-39
2023/04/02 08:53:47;;;;;;;17.23;8.73;;;;;;;9.91;66.86;99007.50;5080477;28;20040;-41
2023/04/02 08:56:25;;;;;;;17.90;9.20;;;;;;;10.08;66.84;99018.03;5068464;28;20275;-41
2023/04/02 08:59:20;;;;;;;14.90;9.23;;;;;;;9.89;67.01;98983.34;5077656;28;20048;-42
2023/04/02 09:02:10;;;;;;;16.13;8.48;;;;;;;10.01;66.96;99014.00;5087998;28;20412;-40
2023/04/02 09:04:37;;;;;;;17.08;8.65;;;;;;;9.89;67.35;99005.91;5077001;28;20070;-39
2023/04/02 09:07:03;;;;;;;17.65;8.82;;;;;;;9.91;67.00;99007.50;5068075;28;20620;-40
2023/04/02 09:09:34;;;;;;;14.82;8.15;;;;;;;9.89;67.46;99005.91;5075402;28;20163;-38
2023/04/02 09:12:03;;;;;;;16.75;9.13;;;;;;;9.65;67.79;98972.28;5073524;28;20126;-40
2023/04/02 09:14:42;;;;;;;19.58;9.48;;;;;;;9.93;68.21;99010.06;5082861;28;20052;-40
2023/04/02 09:17:26;;;;;;;20.00;10.10;;;;;;;9.90;68.02;98997.19;5078946;28;20448;-40
2023/04/02 09:19:56;;;;;;;20.02;9.98;;;;;;;10.11;67.83;99011.84;5076615;28;20040;-40
2023/04/02 09:22:24;;;;;;;17.48;9.32;;;;;;;10.24;67.86;99015.66;5068608;28;20050;-39
2023/04/02 09:24:56;;;;;;;18.40;9.32;;;;;;;10.38;67.29;99008.09;5085775;28;20503;-40
2023/04/02 09:27:25;;;;;;;18.55;9.80;;;;;;;10.35;66.89;98999.59;5066987;28;20060;-39
2023/04/02 09:30:00;;;;;;;20.52;9.88;;;;;;;10.24;67.07;99007.00;5086219;28;20039;-39
2023/04/02 09:32:43;;;;;;;18.60;10.30;;;;;;;10.24;67.34;99009.59;5069561;28;20052;-40
2023/04/02 09:35:22;;;;;;;17.92;10.10;;;;;;;10.30;67.33;99024.94;5082406;28;20101;-40
2023/04/02 09:38:08;;;;;;;25.67;10.20;;;;;;;10.16;67.83;99020.31;5077847;28;20427;-39
2023/04/02 09:40:53;;;;;;;19.35;10.30;;;;;;;10.02;67.66;99022.63;5070197;28;20774;-39
2023/04/02 09:43:22;;;;;;;17.45;9.82;;;;;;;10.08;68.25;99027.56;5065824;28;20198;-39
2023/04/02 09:46:22;;;;;;;20.05;9.77;;;;;;;10.05;68.62;99030.28;5083194;28;20050;-39
2023/04/02 09:48:54;;;;;;;19.95;9.85;;;;;;;10.17;68.33;99028.06;5077695;28;20504;-40
2023/04/02 09:51:26;;;;;;;21.45;9.43;;;;;;;9.91;68.13;98988.50;5070922;28;20036;-40
2023/04/02 09:54:01;;;;;;;20.08;9.65;;;;;;;10.08;68.83;99027.56;5077634;28;20044;-41
2023/04/02 09:56:29;;;;;;;20.48;10.02;;;;;;;10.19;68.68;99030.59;5074572;28;20127;-37
2023/04/02 09:59:15;;;;;;;21.25;10.88;;;;;;;10.11;68.47;99027.44;5079546;28;20047;-40
2023/04/02 10:01:44;;;;;;;19.15;10.70;;;;;;;10.08;68.51;99025.81;5072630;28;20044;-39
2023/04/02 10:04:46;;;;;;;18.77;10.32;;;;;;;10.20;68.87;99027.09;5072280;28;20564;-39
2023/04/02 10:07:33;;;;;;;16.15;9.68;;;;;;;10.23;68.33;99032.13;5071440;28;20465;-40
2023/04/02 10:10:20;;;;;;;18.42;10.88;;;;;;;10.32;68.70;99021.34;5078962;28;20043;-40
2023/04/02 10:12:55;;;;;;;18.48;10.25;;;;;;;10.09;68.30;98993.75;5074072;28;20511;-40
2023/04/02 10:15:26;;;;;;;17.52;10.45;;;;;;;10.30;68.22;99037.91;5075539;28;20127;-39
2023/04/02 10:18:19;;;;;;;18.15;10.20;;;;;;;10.37;68.32;99036.72;5078013;28;20039;-39
2023/04/02 10:20:47;;;;;;;20.20;9.57;;;;;;;10.10;68.27;99016.19;5073013;28;20050;-41
2023/04/02 10:23:16;;;;;;;20.35;10.10;;;;;;;10.24;69.08;99054.63;5080326;28;20118;-39
2023/04/02 10:25:51;;;;;;;21.15;10.23;;;;;;;10.26;68.23;99033.78;5069815;28;20435;-40
2023/04/02 10:28:27;;;;;;;17.77;9.80;;;;;;;10.27;68.45;99022.44;5062243;28;20044;-39
2023/04/02 10:31:16;;;;;;;17.45;9.60;;;;;;;10.44;68.27;99025.16;5079058;28;20049;-39
2023/04/02 10:33:46;;;;;;;17.45;9.80;;;;;;;10.49;67.85;99041.38;5078696;28;20695;-40
2023/04/02 10:36:47;;;;;;;15.32;9.23;;;;;;;10.15;68.35;99000.44;5075074;28;20090;-40
2023/04/02 10:39:32;;;;;;;16.60;9.13;;;;;;;10.31;67.86;99006.66;5077304;28;20056;-38
2023/04/02 10:42:11;;;;;;;19.55;9.32;;;;;;;10.83;67.57;99032.94;5071986;28;20055;-41
2023/04/02 10:45:16;;;;;;;18.67;9.73;;;;;;;11.07;66.52;99029.19;5070888;28;20072;-39
2023/04/02 10:48:05;;;;;;;16.60;8.90;;;;;;;11.13;66.01;98989.03;5042908;28;20250;-40
2023/04/02 10:50:43;;;;;;;17.13;8.88;;;;;;;11.68;65.05;99019.28;5088529;28;20082;-38
2023/04/02 10:53:18;;;;;;;18.67;10.20;;;;;;;12.05;64.73;99020.91;5074814;28;20043;-41
2023/04/02 10:55:47;;;;;;;16.30;8.68;;;;;;;12.28;63.10;99024.94;5088905;28;20037;-39
2023/04/02 10:58:24;;;;;;;17.33;8.52;;;;;;;12.25;62.92;99025.94;5053284;28;20048;-40
2023/04/02 11:00:54;;;;;;;15.77;8.55;;;;;;;12.03;62.74;99001.06;5069946;28;20050;-39
2023/04/02 11:03:33;;;;;;;15.80;9.65;;;;;;;12.40;61.99;99010.44;5081906;28;20044;-38
2023/04/02 11:06:04;;;;;;;16.95;9.40;;;;;;;12.67;61.33;99016.78;5074454;28;20058;-38
2023/04/02 11:08:39;;;;;;;14.57;8.43;;;;;;;12.85;60.51;99036.69;5076356;28;20051;-39
2023/04/02 11:11:11;;;;;;;13.95;9.15;;;;;;;12.69;60.15;99009.72;5076005;28;20121;-40
2023/04/02 11:14:08;;;;;;;13.95;8.80;;;;;;;13.03;60.00;99004.34;5066337;28;20427;-40
2023/04/02 11:16:34;;;;;;;18.65;8.65;;;;;;;14.06;58.26;99015.88;5074225;28;20067;-41
2023/04/02 11:19:09;;;;;;;14.80;7.68;;;;;;;14.88;56.76;99008.25;5079823;28;20504;-39
2023/04/02 11:21:39;;;;;;;15.75;8.38;;;;;;;15.31;53.76;99003.75;5081781;28;20040;-40
2023/04/02 11:24:21;;;;;;;13.10;8.15;;;;;;;16.10;51.90;99006.41;5073273;28;20427;-39
2023/04/02 11:26:48;;;;;;;14.32;8.50;;;;;;;15.48;52.79;99011.38;5066236;28;20036;-40
2023/04/02 11:29:27;;;;;;;17.40;8.85;;;;;;;14.89;53.65;98999.47;5052542;28;20048;-39
2023/04/02 11:32:15;;;;;;;19.42;9.00;;;;;;;15.01;53.98;99009.19;5058043;28;20074;-39
2023/04/02 11:34:40;;;;;;;19.10;9.00;;;;;;;14.88;53.50;99020.50;5078098;28;20080;-40
2023/04/02 11:37:09;;;;;;;16.17;9.30;;;;;;;14.02;54.51;98993.50;5074389;28;20483;-38
2023/04/02 11:39:55;;;;;;;16.67;9.67;;;;;;;13.79;55.53;98994.81;5061950;28;20043;-39
2023/04/02 11:42:24;;;;;;;18.08;9.02;;;;;;;14.34;54.65;99023.75;5070208;28;20053;-40
2023/04/02 11:44:51;;;;;;;22.80;10.13;;;;;;;13.94;55.07;98993.94;5080426;28;20075;-39
2023/04/02 11:47:21;;;;;;;19.27;8.93;;;;;;;13.75;55.49;99029.91;5086493;28;20040;-40
2023/04/02 11:49:53;;;;;;;14.32;8.93;;;;;;;13.25;56.46;99034.50;5073809;28;20049;-40
2023/04/02 11:52:22;;;;;;;22.40;10.38;;;;;;;12.60;57.56;99005.84;5076582;28;21151;-41
2023/04/02 11:55:00;;;;;;;21.27;10.20;;;;;;;12.82;57.95;99015.13;5070593;28;20467;-40
2023/04/02 11:57:57;;;;;;;18.90;10.77;;;;;;;13.06;57.56;99024.22;5078225;28;20408;-39
2023/04/02 12:00:46;;;;;;;23.60;10.32;;;;;;;12.91;58.02;99031.13;5077322;28;20051;-40
2023/04/02 12:03:49;;;;;;;17.27;9.43;;;;;;;12.86;58.12;99021.88;5076045;28;20040;-39
2023/04/02 12:06:53;;;;;;;24.48;10.57;;;;;;;12.89;58.31;99017.31;5085027;28;20130;-45
2023/04/02 12:09:27;;;;;;;18.88;10.50;;;;;;;12.95;58.13;98995.28;5079005;28;20054;-41